createdAt,value
2024-03-05T00:00:30.150Z,77.83
2024-03-05T00:02:56.819Z,78.01
2024-03-05T00:05:23.429Z,77.65
2024-03-05T00:07:50.133Z,78.43
2024-03-05T00:10:17.037Z,78.06
2024-03-05T00:12:43.649Z,77.98
2024-03-05T00:15:10.624Z,77.18
2024-03-05T00:17:38.208Z,78.12
2024-03-05T00:20:05.488Z,77.90
2024-03-05T00:22:32.131Z,78.39
2024-03-05T00:24:59.865Z,78.97
2024-03-05T00:27:27.169Z,79.27
2024-03-05T00:29:53.806Z,79.80
2024-03-05T00:32:20.420Z,79.38
2024-03-05T00:34:47.114Z,78.10
2024-03-05T00:37:13.792Z,79.04
2024-03-05T00:39:40.405Z,78.64
2024-03-05T00:42:07.094Z,78.61
2024-03-05T00:44:33.731Z,78.58
2024-03-05T00:47:00.314Z,77.91
2024-03-05T00:49:27.732Z,77.61
2024-03-05T00:51:54.381Z,77.89
2024-03-05T00:54:20.935Z,78.30
2024-03-05T00:56:48.129Z,79.10
2024-03-05T00:59:14.680Z,79.68
2024-03-05T01:01:41.395Z,80.37
2024-03-05T01:04:09.277Z,80.11
2024-03-05T01:06:36.281Z,80.92
2024-03-05T01:09:03.943Z,80.92
2024-03-05T01:11:31.017Z,80.55
2024-03-05T01:13:57.790Z,79.98
2024-03-05T01:16:24.649Z,80.11
2024-03-05T01:18:51.223Z,80.07
2024-03-05T01:21:17.844Z,80.54
2024-03-05T01:23:44.962Z,79.36
2024-03-05T01:26:11.466Z,79.35
2024-03-05T01:28:38.155Z,79.27
2024-03-05T01:31:04.796Z,79.47
2024-03-05T01:33:31.476Z,79.59
2024-03-05T01:35:58.192Z,79.83
2024-03-05T01:38:25.091Z,80.44
2024-03-05T01:40:51.800Z,80.19
2024-03-05T01:43:21.076Z,79.31
2024-03-05T01:45:49.335Z,79.76
2024-03-05T01:48:17.426Z,80.54
2024-03-05T01:50:46.106Z,80.86
2024-03-05T01:53:16.469Z,81.77
2024-03-05T01:55:44.786Z,79.69
2024-03-05T01:58:15.836Z,80.29
2024-03-05T02:00:43.292Z,80.66
2024-03-05T02:03:12.311Z,80.22
2024-03-05T02:05:46.058Z,80.43
2024-03-05T02:08:16.132Z,81.14
2024-03-05T02:10:47.291Z,81.17
2024-03-05T02:13:13.969Z,81.39
2024-03-05T02:15:40.740Z,80.70
2024-03-05T02:18:09.031Z,81.10
2024-03-05T02:20:35.924Z,79.74
2024-03-05T02:23:03.588Z,80.77
2024-03-05T02:25:32.612Z,80.27
2024-03-05T02:28:00.902Z,80.89
2024-03-05T02:30:27.608Z,80.80
2024-03-05T02:32:54.476Z,81.03
2024-03-05T02:35:21.671Z,79.68
2024-03-05T02:37:48.242Z,79.59
2024-03-05T02:40:15.268Z,79.83
2024-03-05T02:42:42.357Z,80.94
2024-03-05T02:45:09.652Z,80.76
2024-03-05T02:47:43.383Z,80.34
2024-03-05T02:50:11.054Z,79.82
2024-03-05T02:52:39.868Z,81.16
2024-03-05T02:55:10.821Z,80.05
2024-03-05T02:57:42.466Z,80.07
2024-03-05T03:00:10.483Z,80.30
2024-03-05T03:02:37.895Z,80.35
2024-03-05T03:05:04.891Z,81.20
2024-03-05T03:07:31.499Z,81.29
2024-03-05T03:09:58.068Z,81.40
2024-03-05T03:12:24.680Z,81.24
2024-03-05T03:14:51.255Z,81.01
2024-03-05T03:17:17.885Z,80.25
2024-03-05T03:19:44.502Z,80.79
2024-03-05T03:22:11.621Z,81.24
2024-03-05T03:24:38.090Z,81.51
2024-03-05T03:27:04.721Z,81.36
2024-03-05T03:29:31.347Z,80.74
2024-03-05T03:31:58.122Z,81.87
2024-03-05T03:34:24.765Z,80.84
2024-03-05T03:36:51.549Z,81.21
2024-03-05T03:39:27.183Z,80.65
2024-03-05T03:41:55.109Z,81.17
2024-03-05T03:44:23.515Z,80.64
2024-03-05T03:46:51.512Z,81.30
2024-03-05T03:49:27.033Z,81.29
2024-03-05T03:51:55.023Z,80.45
2024-03-05T03:54:22.933Z,81.13
2024-03-05T03:56:50.201Z,80.58
2024-03-05T03:59:17.052Z,81.12
2024-03-05T04:01:47.692Z,80.72
2024-03-05T04:04:14.972Z,80.21
2024-03-05T04:06:41.991Z,80.68
2024-03-05T04:09:15.030Z,81.61
2024-03-05T04:11:43.035Z,79.99
2024-03-05T04:14:10.358Z,80.81
2024-03-05T04:16:41.524Z,80.78
2024-03-05T04:19:08.468Z,80.92
2024-03-05T04:21:45.656Z,80.80
2024-03-05T04:24:14.499Z,79.94
2024-03-05T04:26:42.599Z,80.05
2024-03-05T04:29:18.081Z,81.35
2024-03-05T04:31:50.720Z,80.94
2024-03-05T04:34:21.810Z,80.75
2024-03-05T04:36:51.554Z,79.85
2024-03-05T04:39:18.166Z,80.00
2024-03-05T04:41:45.661Z,80.37
2024-03-05T04:44:12.337Z,80.43
2024-03-05T04:46:39.507Z,80.10
2024-03-05T04:49:07.500Z,80.56
2024-03-05T04:51:34.447Z,80.31
2024-03-05T04:54:00.960Z,80.63
2024-03-05T04:56:27.799Z,80.70
2024-03-05T04:58:54.580Z,81.06
2024-03-05T05:01:22.951Z,80.52
2024-03-05T05:03:49.662Z,80.95
2024-03-05T05:06:16.543Z,81.41
2024-03-05T05:08:43.958Z,81.89
2024-03-05T05:11:10.924Z,81.35
2024-03-05T05:13:37.732Z,81.04
2024-03-05T05:16:06.332Z,80.87
2024-03-05T05:18:33.123Z,81.66
2024-03-05T05:21:00.808Z,81.16
2024-03-05T05:23:27.427Z,81.52
2024-03-05T05:25:54.169Z,81.29
2024-03-05T05:28:21.355Z,81.71
2024-03-05T05:30:47.936Z,80.60
2024-03-05T05:33:14.844Z,81.25
2024-03-05T05:35:41.519Z,80.80
2024-03-05T05:38:11.620Z,81.04
2024-03-05T05:40:38.296Z,81.55
2024-03-05T05:43:05.301Z,81.41
2024-03-05T05:45:31.898Z,80.70
2024-03-05T05:47:59.322Z,80.72
2024-03-05T05:50:32.490Z,81.34
2024-03-05T05:52:59.691Z,81.19
2024-03-05T05:55:27.283Z,80.92
2024-03-05T05:57:55.778Z,80.96
2024-03-05T06:00:46.904Z,81.18
2024-03-05T06:03:13.727Z,80.86
2024-03-05T06:05:43.553Z,81.69
2024-03-05T06:08:13.282Z,80.63
2024-03-05T06:10:40.637Z,80.81
2024-03-05T06:13:08.282Z,80.93
2024-03-05T06:15:37.068Z,81.40
2024-03-05T06:18:03.995Z,81.52
2024-03-05T06:20:30.715Z,81.42
2024-03-05T06:22:59.368Z,81.73
2024-03-05T06:25:28.487Z,81.76
2024-03-05T06:27:55.862Z,81.75
2024-03-05T06:30:24.011Z,82.01
2024-03-05T06:32:52.758Z,81.69
2024-03-05T06:35:23.760Z,82.02
2024-03-05T06:37:51.384Z,81.90
2024-03-05T06:40:24.854Z,81.56
2024-03-05T06:42:53.419Z,81.59
2024-03-05T06:45:28.870Z,81.79
2024-03-05T06:48:07.306Z,81.53
2024-03-05T06:50:39.511Z,81.38
2024-03-05T06:53:28.974Z,81.77
2024-03-05T06:56:14.601Z,80.76
2024-03-05T06:58:47.147Z,80.86
2024-03-05T07:01:16.072Z,81.33
2024-03-05T07:03:46.263Z,80.38
2024-03-05T07:06:16.038Z,79.66
2024-03-05T07:08:44.301Z,79.95
2024-03-05T07:11:13.270Z,80.18
2024-03-05T07:13:44.777Z,78.69
2024-03-05T07:16:17.740Z,78.74
2024-03-05T07:18:48.568Z,78.05
2024-03-05T07:21:18.171Z,77.54
2024-03-05T07:23:47.259Z,77.97
2024-03-05T07:26:17.076Z,76.72
2024-03-05T07:28:44.497Z,77.65
2024-03-05T07:31:12.358Z,77.02
2024-03-05T07:33:39.786Z,76.03
2024-03-05T07:36:07.808Z,75.59
2024-03-05T07:38:34.679Z,76.58
2024-03-05T07:41:08.512Z,75.40
2024-03-05T07:43:40.780Z,77.07
2024-03-05T07:46:08.517Z,77.58
2024-03-05T07:48:35.116Z,76.96
2024-03-05T07:51:01.711Z,77.42
2024-03-05T07:53:28.283Z,77.95
2024-03-05T07:55:55.127Z,78.05
2024-03-05T07:58:22.313Z,78.24
2024-03-05T08:00:49.033Z,78.71
2024-03-05T08:03:15.639Z,78.97
2024-03-05T08:05:43.154Z,78.34
2024-03-05T08:08:10.852Z,78.21
2024-03-05T08:10:37.664Z,78.08
2024-03-05T08:13:04.480Z,77.46
2024-03-05T08:15:31.060Z,78.33
2024-03-05T08:17:58.258Z,78.42
2024-03-05T08:20:27.615Z,77.67
2024-03-05T08:22:55.830Z,76.97
2024-03-05T08:25:23.423Z,77.08
2024-03-05T08:27:52.338Z,76.69
2024-03-05T08:30:23.227Z,76.28
2024-03-05T08:32:52.668Z,76.29
2024-03-05T08:35:20.146Z,75.95
2024-03-05T08:37:48.705Z,75.44
2024-03-05T08:40:17.561Z,75.16
2024-03-05T08:42:46.441Z,74.08
2024-03-05T08:45:15.977Z,73.81
2024-03-05T08:47:46.186Z,73.39
2024-03-05T08:50:13.685Z,74.13
2024-03-05T08:52:45.042Z,74.06
2024-03-05T08:55:13.857Z,73.18
2024-03-05T08:57:41.486Z,71.09
2024-03-05T09:02:48.574Z,71.96
2024-03-05T09:05:15.385Z,72.26
2024-03-05T09:07:43.903Z,72.59
2024-03-05T09:10:11.389Z,73.59
2024-03-05T09:12:38.355Z,73.00
2024-03-05T09:15:07.172Z,74.22
2024-03-05T09:17:35.149Z,73.69
2024-03-05T09:20:14.956Z,73.19
2024-03-05T09:22:48.503Z,73.04
2024-03-05T09:25:16.929Z,73.81
2024-03-05T09:27:46.072Z,73.46
2024-03-05T09:30:16.495Z,72.46
2024-03-05T09:32:44.832Z,71.73
2024-03-05T09:35:13.847Z,71.92
2024-03-05T09:37:41.187Z,70.03
2024-03-05T09:40:08.349Z,70.88
2024-03-05T09:42:38.411Z,70.71
2024-03-05T09:45:07.789Z,71.65
2024-03-05T09:47:38.746Z,70.49
2024-03-05T09:50:07.155Z,71.14
2024-03-05T09:52:35.449Z,72.23
2024-03-05T09:55:02.770Z,70.80
2024-03-05T09:57:40.196Z,70.82
2024-03-05T10:00:18.560Z,69.54
2024-03-05T10:02:51.805Z,67.96
2024-03-05T10:05:26.288Z,68.52
2024-03-05T10:07:53.076Z,68.55
2024-03-05T10:10:21.122Z,68.46
2024-03-05T10:12:48.166Z,66.68
2024-03-05T10:15:22.127Z,66.62
2024-03-05T10:17:51.863Z,65.62
2024-03-05T10:20:27.008Z,65.22
2024-03-05T10:22:59.642Z,66.63
2024-03-05T10:25:28.055Z,65.08
2024-03-05T10:27:56.040Z,64.66
2024-03-05T10:30:28.705Z,64.04
2024-03-05T10:32:58.418Z,66.08
2024-03-05T10:35:25.163Z,64.98
2024-03-05T10:38:04.217Z,64.33
2024-03-05T10:40:36.622Z,63.84
2024-03-05T10:43:09.888Z,61.50
2024-03-05T10:45:39.470Z,61.67
2024-03-05T10:48:12.316Z,60.45
2024-03-05T10:50:41.430Z,59.80
2024-03-05T10:53:09.606Z,59.51
2024-03-05T10:55:38.739Z,59.40
2024-03-05T10:58:12.327Z,61.52
2024-03-05T11:00:40.921Z,61.78
2024-03-05T11:03:12.847Z,62.12
2024-03-05T11:05:51.070Z,61.08
2024-03-05T11:08:20.730Z,61.88
2024-03-05T11:10:54.590Z,63.31
2024-03-05T11:13:22.807Z,62.16
2024-03-05T11:15:52.442Z,61.12
2024-03-05T11:18:29.626Z,61.11
2024-03-05T11:20:57.099Z,61.84
2024-03-05T11:23:30.679Z,61.98
2024-03-05T11:26:04.959Z,62.10
2024-03-05T11:28:36.836Z,61.40
2024-03-05T11:31:19.236Z,60.76
2024-03-05T11:33:58.985Z,60.91
2024-03-05T11:36:31.302Z,60.58
2024-03-05T11:39:01.879Z,60.20
2024-03-05T11:41:34.920Z,60.09
2024-03-05T11:44:03.901Z,59.26
2024-03-05T11:46:44.969Z,57.50
2024-03-05T11:49:12.850Z,57.07
2024-03-05T11:51:41.644Z,56.51
2024-03-05T11:54:12.574Z,54.44
2024-03-05T11:56:47.178Z,56.24
2024-03-05T11:59:14.071Z,56.37
2024-03-05T12:01:44.392Z,56.32
2024-03-05T12:04:13.072Z,55.44
2024-03-05T12:06:42.373Z,56.56
2024-03-05T12:09:20.053Z,54.58
2024-03-05T12:12:11.084Z,53.78
2024-03-05T12:14:38.883Z,52.92
2024-03-05T12:17:08.712Z,51.81
2024-03-05T12:19:36.054Z,53.12
2024-03-05T12:22:02.865Z,52.97
2024-03-05T12:24:30.444Z,52.70
2024-03-05T12:26:59.044Z,51.22
2024-03-05T12:29:29.157Z,51.22
2024-03-05T12:31:57.550Z,49.37
2024-03-05T12:34:24.742Z,49.09
2024-03-05T12:36:51.991Z,49.49
2024-03-05T12:39:18.943Z,47.67
2024-03-05T12:41:58.118Z,47.70
2024-03-05T12:44:24.771Z,49.58
2024-03-05T12:46:51.614Z,48.88
2024-03-05T12:49:18.795Z,48.84
2024-03-05T12:51:45.409Z,50.71
2024-03-05T12:54:13.282Z,49.24
2024-03-05T12:56:46.422Z,50.33
2024-03-05T12:59:20.550Z,50.62
2024-03-05T13:01:47.282Z,50.22
2024-03-05T13:04:13.892Z,50.87
2024-03-05T13:06:40.630Z,49.61
2024-03-05T13:09:07.274Z,48.66
2024-03-05T13:11:34.025Z,49.40
2024-03-05T13:14:10.388Z,47.77
2024-03-05T13:16:37.641Z,49.20
2024-03-05T13:19:04.250Z,50.90
2024-03-05T13:21:31.224Z,48.20
2024-03-05T13:23:59.131Z,48.79
2024-03-05T13:26:25.893Z,49.42
2024-03-05T13:28:52.498Z,49.34
2024-03-05T13:31:19.134Z,51.27
2024-03-05T13:33:45.821Z,52.25
2024-03-05T13:36:13.410Z,51.80
2024-03-05T13:38:39.997Z,51.01
2024-03-05T13:41:07.797Z,51.35
2024-03-05T13:43:35.579Z,51.31
2024-03-05T13:46:04.662Z,51.39
2024-03-05T13:48:34.526Z,52.86
2024-03-05T13:51:03.462Z,51.88
2024-03-05T13:53:30.110Z,50.53
2024-03-05T13:55:56.979Z,51.40
2024-03-05T13:58:23.861Z,51.56
2024-03-05T14:00:50.813Z,50.17
2024-03-05T14:03:17.507Z,49.90
2024-03-05T14:05:44.066Z,49.10
2024-03-05T14:08:13.668Z,49.44
2024-03-05T14:10:43.613Z,51.75
2024-03-05T14:13:18.945Z,50.35
2024-03-05T14:15:45.617Z,51.62
2024-03-05T14:18:12.508Z,50.33
2024-03-05T14:20:42.031Z,52.57
2024-03-05T14:23:09.308Z,50.44
2024-03-05T14:25:36.074Z,50.17
2024-03-05T14:28:03.103Z,50.96
2024-03-05T14:30:31.471Z,50.80
2024-03-05T14:33:00.070Z,50.75
2024-03-05T14:35:27.402Z,51.94
2024-03-05T14:37:54.412Z,50.80
2024-03-05T14:40:22.360Z,51.30
2024-03-05T14:42:50.526Z,49.96
2024-03-05T14:45:17.561Z,51.87
2024-03-05T14:47:45.314Z,50.31
2024-03-05T14:50:12.217Z,49.59
2024-03-05T14:52:38.946Z,49.53
2024-03-05T14:55:06.116Z,50.96
2024-03-05T14:57:32.607Z,50.34
2024-03-05T14:59:59.234Z,52.04
2024-03-05T15:02:25.991Z,50.92
2024-03-05T15:04:52.907Z,52.04
2024-03-05T15:07:19.568Z,52.35
2024-03-05T15:09:46.759Z,51.27
2024-03-05T15:12:13.966Z,53.59
2024-03-05T15:14:43.422Z,52.48
2024-03-05T15:17:10.679Z,52.90
2024-03-05T15:19:37.506Z,54.03
2024-03-05T15:22:04.324Z,53.42
2024-03-05T15:24:30.986Z,54.66
2024-03-05T15:27:04.396Z,54.76
2024-03-05T15:29:32.705Z,55.67
2024-03-05T15:32:01.274Z,56.61
2024-03-05T15:34:28.239Z,57.77
2024-03-05T15:36:55.938Z,61.40
2024-03-05T15:39:22.662Z,63.75
2024-03-05T15:41:50.057Z,64.60
2024-03-05T15:44:17.915Z,66.88
2024-03-05T15:46:45.783Z,66.08
2024-03-05T15:49:12.729Z,66.66
2024-03-05T15:51:39.458Z,66.56
2024-03-05T15:54:06.053Z,67.00
2024-03-05T15:56:45.994Z,66.60
2024-03-05T15:59:33.216Z,67.80
2024-03-05T16:01:59.933Z,66.63
2024-03-05T16:04:48.769Z,67.10
2024-03-05T16:07:13.494Z,67.60
2024-03-05T16:09:40.762Z,67.18
2024-03-05T16:12:12.123Z,68.29
2024-03-05T16:14:41.779Z,67.91
2024-03-05T16:17:11.975Z,67.95
2024-03-05T16:19:39.699Z,68.63
2024-03-05T16:22:06.266Z,68.08
2024-03-05T16:24:32.925Z,67.69
2024-03-05T16:26:59.768Z,68.37
2024-03-05T16:29:27.192Z,67.48
2024-03-05T16:31:54.863Z,67.43
2024-03-05T16:34:21.560Z,68.22
2024-03-05T16:36:51.011Z,68.65
2024-03-05T16:39:19.630Z,67.58
2024-03-05T16:41:46.566Z,67.14
2024-03-05T16:44:13.338Z,67.64
2024-03-05T16:46:42.220Z,68.36
2024-03-05T16:49:09.762Z,68.05
2024-03-05T16:51:37.260Z,67.84
2024-03-05T16:54:04.394Z,67.82
2024-03-05T16:56:30.921Z,67.19
2024-03-05T16:58:57.656Z,67.34
2024-03-05T17:01:25.149Z,67.06
2024-03-05T17:03:54.720Z,69.09
2024-03-05T17:06:23.349Z,69.30
2024-03-05T17:08:50.676Z,69.17
2024-03-05T17:11:17.650Z,70.85
2024-03-05T17:13:47.492Z,71.17
2024-03-05T17:16:14.907Z,70.13
2024-03-05T17:18:42.170Z,70.09
2024-03-05T17:21:09.693Z,71.69
2024-03-05T17:23:42.207Z,70.27
2024-03-05T17:26:11.165Z,71.19
2024-03-05T17:28:38.146Z,71.50
2024-03-05T17:31:04.939Z,71.88
2024-03-05T17:33:32.187Z,71.95
2024-03-05T17:35:59.295Z,71.79
2024-03-05T17:38:29.524Z,72.51
2024-03-05T17:40:58.324Z,73.31
2024-03-05T17:43:25.676Z,73.60
2024-03-05T17:45:52.350Z,74.35
2024-03-05T17:48:20.491Z,74.85
2024-03-05T17:50:47.222Z,73.70
2024-03-05T17:53:14.082Z,74.02
2024-03-05T17:55:40.810Z,73.88
2024-03-05T17:58:07.411Z,74.11
2024-03-05T18:00:46.143Z,73.28
2024-03-05T18:03:15.394Z,72.12
2024-03-05T18:05:46.379Z,71.78
2024-03-05T18:08:14.551Z,71.61
2024-03-05T18:10:42.907Z,72.05
2024-03-05T18:13:10.586Z,71.89
2024-03-05T18:15:38.365Z,72.41
2024-03-05T18:18:07.229Z,72.66
2024-03-05T18:20:37.789Z,72.40
2024-03-05T18:23:05.733Z,73.58
2024-03-05T18:25:36.796Z,73.94
2024-03-05T18:28:05.218Z,74.15
2024-03-05T18:30:43.044Z,73.73
2024-03-05T18:33:12.164Z,74.45
2024-03-05T18:35:41.114Z,73.84
2024-03-05T18:40:40.966Z,74.93
2024-03-05T18:43:09.296Z,75.36
2024-03-05T18:45:37.088Z,74.34
2024-03-05T18:48:09.635Z,75.32
2024-03-05T18:50:37.299Z,74.85
2024-03-05T18:53:06.963Z,74.50
2024-03-05T18:55:36.744Z,75.97
2024-03-05T18:58:07.622Z,75.45
2024-03-05T19:00:34.815Z,75.62
2024-03-05T19:03:02.108Z,75.81
2024-03-05T19:05:28.783Z,75.84
2024-03-05T19:07:55.618Z,76.78
2024-03-05T19:10:23.706Z,76.22
2024-03-05T19:12:50.251Z,75.99
2024-03-05T19:15:22.025Z,76.21
2024-03-05T19:17:49.175Z,75.88
2024-03-05T19:20:16.907Z,76.42
2024-03-05T19:22:43.877Z,77.05
2024-03-05T19:25:12.794Z,77.08
2024-03-05T19:27:41.112Z,77.53
2024-03-05T19:30:12.772Z,77.39
2024-03-05T19:32:43.346Z,77.39
2024-03-05T19:35:12.387Z,77.15
2024-03-05T19:37:43.871Z,77.36
2024-03-05T19:40:18.971Z,78.18
2024-03-05T19:42:49.339Z,78.07
2024-03-05T19:45:16.003Z,78.45
2024-03-05T19:47:42.825Z,78.61
2024-03-05T19:50:15.012Z,78.63
2024-03-05T19:52:41.938Z,78.17
2024-03-05T19:55:09.623Z,77.87
2024-03-05T19:57:36.624Z,77.42
2024-03-05T20:00:12.722Z,77.60
2024-03-05T20:02:40.128Z,78.24
2024-03-05T20:05:07.165Z,78.27
2024-03-05T20:07:33.767Z,78.35
2024-03-05T20:10:02.068Z,78.31
2024-03-05T20:12:28.953Z,78.40
2024-03-05T20:14:56.255Z,78.34
2024-03-05T20:17:24.234Z,77.61
2024-03-05T20:19:52.285Z,77.39
2024-03-05T20:22:19.775Z,77.07
2024-03-05T20:24:48.551Z,77.47
2024-03-05T20:27:17.011Z,76.82
2024-03-05T20:29:43.819Z,77.31
2024-03-05T20:32:10.733Z,76.96
2024-03-05T20:34:39.416Z,76.50
2024-03-05T20:37:06.241Z,76.38
2024-03-05T20:39:32.876Z,75.81
2024-03-05T20:41:59.489Z,75.84
2024-03-05T20:44:26.582Z,76.44
2024-03-05T20:46:53.426Z,75.79
2024-03-05T20:49:20.285Z,76.36
2024-03-05T20:51:46.983Z,76.26
2024-03-05T20:54:13.639Z,76.36
2024-03-05T20:56:40.230Z,76.12
2024-03-05T20:59:06.977Z,76.06
2024-03-05T21:01:33.811Z,75.90
2024-03-05T21:04:01.573Z,76.40
2024-03-05T21:06:28.385Z,76.03
2024-03-05T21:08:59.673Z,76.10
2024-03-05T21:11:26.448Z,75.94
2024-03-05T21:13:53.279Z,75.85
2024-03-05T21:16:20.198Z,76.22
2024-03-05T21:18:47.426Z,76.08
2024-03-05T21:21:17.848Z,75.49
2024-03-05T21:23:45.101Z,76.08
2024-03-05T21:26:27.377Z,75.91
2024-03-05T21:29:01.332Z,75.75
2024-03-05T21:31:30.035Z,76.42
2024-03-05T21:33:56.698Z,76.25
2024-03-05T21:36:23.710Z,75.51
2024-03-05T21:38:50.399Z,75.32
2024-03-05T21:41:17.234Z,76.08
2024-03-05T21:43:45.106Z,76.26
2024-03-05T21:46:11.770Z,76.60
2024-03-05T21:48:38.398Z,76.77
2024-03-05T21:51:09.845Z,77.31
2024-03-05T21:53:39.681Z,76.48
2024-03-05T21:56:06.877Z,76.65
2024-03-05T21:58:34.105Z,76.41
2024-03-05T22:01:01.100Z,76.66
2024-03-05T22:03:29.511Z,76.71
2024-03-05T22:05:59.633Z,77.38
2024-03-05T22:08:28.908Z,77.79
2024-03-05T22:10:58.387Z,77.88
2024-03-05T22:13:26.071Z,77.27
2024-03-05T22:15:52.830Z,77.19
2024-03-05T22:18:19.475Z,76.99
2024-03-05T22:20:46.122Z,77.10
2024-03-05T22:23:13.891Z,77.34
2024-03-05T22:25:41.978Z,77.73
2024-03-05T22:28:08.684Z,77.56
2024-03-05T22:30:35.452Z,78.28
2024-03-05T22:33:02.228Z,78.33
2024-03-05T22:35:28.929Z,77.91
2024-03-05T22:37:58.329Z,78.03
2024-03-05T22:40:25.302Z,78.56
2024-03-05T22:42:52.952Z,78.89
2024-03-05T22:45:22.538Z,78.38
2024-03-05T22:47:49.826Z,77.79
2024-03-05T22:50:17.173Z,78.56
2024-03-05T22:52:45.654Z,78.38
2024-03-05T22:55:13.138Z,78.03
2024-03-05T22:57:39.924Z,78.26
2024-03-05T23:00:25.960Z,78.25
2024-03-05T23:02:53.051Z,78.20
2024-03-05T23:05:20.657Z,78.87
2024-03-05T23:07:47.986Z,77.98
2024-03-05T23:10:18.449Z,77.71
2024-03-05T23:12:45.724Z,78.73
2024-03-05T23:15:16.403Z,79.10
2024-03-05T23:17:43.981Z,78.58
2024-03-05T23:20:13.891Z,78.21
2024-03-05T23:22:40.867Z,78.97
2024-03-05T23:25:09.835Z,77.93
2024-03-05T23:27:37.196Z,78.42
2024-03-05T23:30:06.030Z,78.17
2024-03-05T23:32:33.286Z,78.49
2024-03-05T23:35:03.522Z,78.76
2024-03-05T23:37:30.120Z,78.53
2024-03-05T23:39:58.035Z,78.03
2024-03-05T23:42:25.663Z,78.35
2024-03-05T23:44:53.607Z,78.89
2024-03-05T23:47:20.450Z,78.87
2024-03-05T23:49:47.865Z,78.76
2024-03-05T23:52:14.689Z,78.39
2024-03-05T23:54:44.407Z,78.54
2024-03-05T23:57:11.542Z,78.56
2024-03-05T23:59:41.817Z,78.86
